Mount Laguna, CA

12:45 PM PDT on September 23, 2014 (GMT -0700)
Campo | Change Station
CLOSE
Current Station
Airport
Location: Campo,
Elevation: 2648 ft
Nearby Weather Stations

Elev 2648 ft 32.63 °N, 116.47 °W | Updated 53 minutes ago

Clear
Clear
90 °F
Feels Like 90 °F
N
10
Wind Variable Wind from SW
Gusts 20 mph

Today
High -- | Low -- °F
--% Chance of Precip.
Yesterday
High -- | Low -- °F
Precip. -- in
6:34 AM 6:40 PM
Waning Crescent, 0% visible
Pressure 29.90 in
Visibility -9999.0 miles
Clouds
Dew Point 47 °F
Humidity 23%
Rainfall 0.00 in
Snow Depth 0 in , 0 in , 0 in
UV Not available.
Pollen 5.60 out of 12
Air Quality Not available.
Flu Activity Not available.
METAR KCZZ 231852Z AUTO 23009G17KT 32/08 A3000 RMK AO1 SLP125 T03220083

More Conditions Fewer Conditions

Pressure 29.90 in
Visibility -9999.0 miles
Clouds
Dew Point 47 °F
Humidity 23%
Rainfall 0.00 in
Snow Depth 0 in , 0 in , 0 in
UV Not available.
Pollen 5.60 out of 12
Air Quality Not available.
Flu Activity Not available.
METAR KCZZ 231852Z AUTO 23009G17KT 32/08 A3000 RMK AO1 SLP125 T03220083

More Conditions Fewer Conditions

10-Day Weather Forecast

Almanac

Astronomy

Sep. 23, 2014 Rise Set
Actual Time 6:34 AM PDT 6:40 PM PDT
Civil Twilight 6:09 AM PDT 7:05 PM PDT
Nautical Twilight 5:41 AM PDT 7:34 PM PDT
Astronomical Twilight 5:12 AM PDT 8:03 PM PDT
Moon 6:03 AM PDT 6:23 PM PDT
Length of Visible Light 12h 55m
Length of Day
12h 06m
Tomorrow will be 2m 0s shorter.
Waning Crescent, 0% of the Moon is Illuminated
Today
Waning Crescent
Sep 24
New
Oct 1
First Quarter
Oct 8
Full
Oct 15
Last Quarter

Today's Extremes

State Highs State Lows

Community

WunderPhotos

Upload Photos

1,755,788 photos uploaded!

WunderBlogs® & News

Nearby

Snow Depth

Station Depth Elevation
Leavitt Meadows 0 in 7200 ft
Rubicon #2 0 in 7500 ft
Burnside Lake 0 in 8139 ft
Summit Meadow 1 in 9122 ft
CSS Lab 1 in 6900 ft

Earthquake Activity

City Distance Mag. Time & Date
Running Springs, California 103 miles 2.5 7:26 AM PDT
2014-09-22
Borrego Springs, California 20 miles 2.6 7:34 AM PDT
2014-09-21
Minimum magnitude displayed is 2.5.

Coastal Water Temperatures

Place Temperature
No Stations Reporting

Nearby Weather Stations